Time;durP1;ratioP1;P1;durP2;ratioP2;P2;SDS_P1;SDS_P2;PMS_P1;PMS_P2;Temp;Humidity;BMP_temperature;BMP_pressure;BME280_temperature;BME280_humidity;BME280_pressure;Samples;Min_cycle;Max_cycle;Signal;HPM_P1;HPM_P2
2023/05/05 00:01:24;;;;;;;5.78;4.38;;;13.60;56.00;;;;;;5038628;28;20033;-60
2023/05/05 00:03:51;;;;;;;9.48;4.97;;;13.60;56.10;;;;;;5041814;28;20061;-60
2023/05/05 00:06:16;;;;;;;10.45;4.78;;;13.50;56.10;;;;;;5041614;28;20017;-60
2023/05/05 00:08:42;;;;;;;7.50;3.90;;;13.50;56.20;;;;;;5042240;28;20059;-60
2023/05/05 00:11:08;;;;;;;6.22;4.50;;;13.50;56.20;;;;;;5042195;28;20112;-61
2023/05/05 00:13:33;;;;;;;6.72;4.47;;;13.50;56.40;;;;;;5042610;28;20053;-60
2023/05/05 00:15:59;;;;;;;5.95;4.05;;;13.40;56.30;;;;;;5040484;28;20025;-60
2023/05/05 00:18:25;;;;;;;8.98;4.32;;;13.40;56.40;;;;;;5040945;28;20038;-60
2023/05/05 00:20:51;;;;;;;7.05;4.05;;;13.40;56.50;;;;;;5037527;28;20048;-60
2023/05/05 00:23:17;;;;;;;8.90;4.63;;;13.40;56.60;;;;;;5043716;28;20033;-60
2023/05/05 00:25:43;;;;;;;8.18;4.25;;;13.30;56.50;;;;;;5040046;28;20052;-61
2023/05/05 00:28:09;;;;;;;6.32;3.97;;;13.30;56.50;;;;;;5037614;28;20041;-61
2023/05/05 00:30:36;;;;;;;7.50;4.15;;;13.20;56.60;;;;;;5039598;28;20021;-62
2023/05/05 00:33:01;;;;;;;7.43;4.30;;;13.20;56.80;;;;;;5039407;28;20076;-60
2023/05/05 00:35:27;;;;;;;8.85;4.50;;;13.10;56.80;;;;;;5041158;28;20025;-60
2023/05/05 00:37:54;;;;;;;8.45;4.30;;;13.10;56.80;;;;;;5043643;28;20132;-60
2023/05/05 00:40:20;;;;;;;6.53;4.03;;;13.10;57.00;;;;;;5038130;28;20033;-59
2023/05/05 00:42:49;;;;;;;5.93;3.88;;;13.00;56.90;;;;;;5040376;28;20057;-60
2023/05/05 00:45:16;;;;;;;7.57;4.47;;;13.00;56.90;;;;;;5036390;28;20025;-62
2023/05/05 00:47:48;;;;;;;5.50;4.00;;;13.00;56.90;;;;;;5035681;28;20040;-60
2023/05/05 00:50:22;;;;;;;6.07;4.07;;;12.90;57.10;;;;;;5040422;28;20256;-60
2023/05/05 00:52:48;;;;;;;;;;;12.90;57.50;;;;;;5044485;28;20033;-60
2023/05/05 00:55:14;;;;;;;8.25;4.00;;;12.90;57.30;;;;;;5039459;28;19913;-60
2023/05/05 00:57:40;;;;;;;6.47;4.28;;;12.90;56.50;;;;;;5040245;28;20025;-61
2023/05/05 01:00:08;;;;;;;7.65;4.22;;;12.80;56.90;;;;;;5039122;28;20041;-59
2023/05/05 01:02:34;;;;;;;6.18;4.07;;;12.80;57.10;;;;;;5040345;28;20055;-59
2023/05/05 01:05:00;;;;;;;6.82;4.25;;;12.80;57.30;;;;;;5040448;28;20053;-60
2023/05/05 01:07:48;;;;;;;8.77;4.03;;;12.80;57.40;;;;;;5040801;28;20049;-62
2023/05/05 01:10:39;;;;;;;6.60;3.83;;;12.70;57.60;;;;;;5047905;28;20174;-60
2023/05/05 01:13:30;;;;;;;5.60;3.65;;;12.70;58.30;;;;;;5041990;28;20052;-60
2023/05/05 01:16:05;;;;;;;6.93;4.03;;;12.70;57.70;;;;;;5038378;28;20728;-60
2023/05/05 01:18:34;;;;;;;5.45;4.05;;;12.60;57.60;;;;;;5039858;28;20029;-60
2023/05/05 01:21:14;;;;;;;5.35;4.13;;;12.60;57.70;;;;;;5039356;28;20037;-60
2023/05/05 01:24:07;;;;;;;7.35;4.30;;;12.60;58.40;;;;;;5039509;28;20035;-61
2023/05/05 01:27:06;;;;;;;8.05;4.30;;;12.60;58.70;;;;;;5032991;28;20053;-60
2023/05/05 01:29:50;;;;;;;6.18;3.88;;;12.50;58.70;;;;;;5036994;28;20048;-60
2023/05/05 01:32:24;;;;;;;7.63;4.20;;;12.50;58.60;;;;;;5038416;28;20082;-60
2023/05/05 01:34:59;;;;;;;7.78;4.00;;;12.50;57.90;;;;;;5039081;28;20081;-59
2023/05/05 01:37:29;;;;;;;5.85;4.25;;;12.50;58.10;;;;;;5035343;28;20032;-60
2023/05/05 01:40:02;;;;;;;6.55;4.03;;;12.40;58.00;;;;;;5039768;28;20033;-60
2023/05/05 01:42:29;;;;;;;8.38;4.25;;;12.40;58.20;;;;;;5037188;28;20022;-62
2023/05/05 01:44:56;;;;;;;6.65;4.40;;;12.40;58.10;;;;;;5036163;28;20033;-60
2023/05/05 01:47:23;;;;;;;5.35;4.30;;;12.40;58.30;;;;;;5033777;28;20030;-60
2023/05/05 01:49:50;;;;;;;6.35;3.70;;;12.40;58.40;;;;;;5021443;28;20033;-60
2023/05/05 01:52:16;;;;;;;7.80;3.70;;;12.40;58.30;;;;;;5040103;28;20092;-60
2023/05/05 01:54:45;;;;;;;4.50;3.67;;;12.40;58.50;;;;;;5039831;28;20032;-60
2023/05/05 01:57:13;;;;;;;7.40;4.03;;;12.40;58.60;;;;;;5034862;28;20100;-60
2023/05/05 01:59:39;;;;;;;6.07;4.30;;;12.40;58.60;;;;;;5039332;28;20025;-61
2023/05/05 02:02:07;;;;;;;5.63;3.92;;;12.30;58.50;;;;;;5040364;28;20041;-60
2023/05/05 02:04:36;;;;;;;4.20;3.80;;;12.30;58.40;;;;;;5031802;28;20599;-60
2023/05/05 02:07:03;;;;;;;8.02;4.13;;;12.30;58.40;;;;;;5034432;28;20036;-59
2023/05/05 02:09:30;;;;;;;6.25;4.15;;;12.30;58.40;;;;;;5038354;28;20064;-60
2023/05/05 02:11:58;;;;;;;7.65;4.07;;;12.20;58.50;;;;;;5040278;28;20050;-60
2023/05/05 02:14:26;;;;;;;6.53;4.03;;;12.20;58.60;;;;;;5039886;28;20093;-61
2023/05/05 02:16:55;;;;;;;5.25;4.10;;;12.20;58.70;;;;;;5038666;28;20033;-60
2023/05/05 02:19:27;;;;;;;5.60;4.13;;;12.10;58.60;;;;;;5037527;28;20518;-60
2023/05/05 02:21:53;;;;;;;4.95;3.90;;;12.10;58.60;;;;;;5021582;28;20033;-59
2023/05/05 02:24:18;;;;;;;12.90;4.07;;;12.10;58.60;;;;;;5041591;28;20036;-60
2023/05/05 02:26:47;;;;;;;11.55;4.68;;;12.10;58.70;;;;;;5032576;28;20038;-62
2023/05/05 02:29:20;;;;;;;6.20;4.13;;;12.10;58.90;;;;;;5038094;28;20116;-60
2023/05/05 02:31:49;;;;;;;7.00;4.50;;;12.00;59.00;;;;;;5035420;28;20053;-61
2023/05/05 02:34:24;;;;;;;9.85;5.13;;;12.00;58.80;;;;;;5038715;28;20057;-61
2023/05/05 02:36:53;;;;;;;9.20;4.47;;;12.00;58.80;;;;;;5035263;28;20018;-60
2023/05/05 02:39:37;;;;;;;6.55;4.47;;;12.00;58.70;;;;;;5037442;28;20021;-61
2023/05/05 02:42:04;;;;;;;7.18;4.50;;;11.90;59.20;;;;;;5034259;28;20449;-60
2023/05/05 02:44:33;;;;;;;8.18;4.60;;;11.90;58.70;;;;;;5036919;28;20033;-60
2023/05/05 02:47:01;;;;;;;7.70;4.60;;;11.80;59.00;;;;;;5043083;28;20029;-59
2023/05/05 02:49:26;;;;;;;7.30;4.63;;;11.80;59.10;;;;;;5042493;28;20071;-60
2023/05/05 02:51:52;;;;;;;8.73;5.10;;;11.80;59.10;;;;;;5042164;28;20100;-61
2023/05/05 02:54:18;;;;;;;6.60;4.85;;;11.80;59.30;;;;;;5042340;28;20029;-64
2023/05/05 02:56:49;;;;;;;5.82;4.60;;;11.70;59.20;;;;;;5041630;28;20029;-60
2023/05/05 03:00:00;;;;;;;7.57;4.57;;;11.70;59.50;;;;;;5042481;28;20026;-61
2023/05/05 03:02:43;;;;;;;6.82;4.93;;;11.70;60.00;;;;;;5013598;28;20046;-59
2023/05/05 03:05:12;;;;;;;7.55;4.53;;;11.70;59.80;;;;;;5044341;28;20029;-60
2023/05/05 03:07:43;;;;;;;5.82;4.03;;;11.70;59.20;;;;;;5046198;28;20033;-60
2023/05/05 03:10:13;;;;;;;8.60;5.25;;;11.70;59.30;;;;;;5040115;28;20059;-60
2023/05/05 03:12:47;;;;;;;9.15;4.80;;;11.60;59.40;;;;;;5043882;28;20069;-61
2023/05/05 03:15:14;;;;;;;11.70;5.13;;;11.60;59.80;;;;;;5046274;28;20039;-61
2023/05/05 03:17:41;;;;;;;9.65;5.03;;;11.60;59.50;;;;;;5043053;28;20022;-60
2023/05/05 03:20:09;;;;;;;10.77;4.97;;;11.60;59.50;;;;;;5042470;28;20428;-59
2023/05/05 03:22:36;;;;;;;12.70;4.80;;;11.50;59.70;;;;;;5043023;28;20476;-61
2023/05/05 03:25:02;;;;;;;6.18;4.15;;;11.50;59.80;;;;;;5041232;28;20051;-61
2023/05/05 03:27:28;;;;;;;8.70;4.45;;;11.50;59.70;;;;;;5041864;28;20022;-62
2023/05/05 03:29:53;;;;;;;8.43;5.18;;;11.50;59.70;;;;;;5039153;28;20124;-60
2023/05/05 03:32:20;;;;;;;7.80;5.03;;;11.50;59.70;;;;;;5043515;28;20083;-60
2023/05/05 03:34:45;;;;;;;8.63;5.03;;;11.50;59.90;;;;;;5039089;28;20029;-60
2023/05/05 03:37:11;;;;;;;6.32;4.80;;;11.50;60.10;;;;;;5040391;28;20770;-62
2023/05/05 03:39:37;;;;;;;6.90;5.15;;;11.50;60.30;;;;;;5038446;28;20030;-60
2023/05/05 03:42:02;;;;;;;8.80;4.68;;;11.40;60.30;;;;;;5043559;28;20108;-60
2023/05/05 03:44:28;;;;;;;11.65;4.75;;;11.50;60.30;;;;;;5016679;28;20022;-61
2023/05/05 03:46:54;;;;;;;9.55;5.25;;;11.50;60.20;;;;;;5045337;28;20030;-61
2023/05/05 03:49:19;;;;;;;6.15;4.80;;;11.50;60.20;;;;;;5044177;28;20042;-60
2023/05/05 03:51:46;;;;;;;6.38;4.93;;;11.50;60.30;;;;;;5023947;28;20045;-61
2023/05/05 03:54:12;;;;;;;6.85;5.15;;;11.40;60.40;;;;;;5040693;28;20032;-60
2023/05/05 03:56:38;;;;;;;8.65;5.43;;;11.40;60.60;;;;;;5041003;28;20029;-60
2023/05/05 03:59:04;;;;;;;7.43;5.22;;;11.40;60.60;;;;;;5043654;28;20021;-60
2023/05/05 04:01:30;;;;;;;7.50;5.18;;;11.40;60.70;;;;;;5041340;28;20041;-60
2023/05/05 04:03:56;;;;;;;6.05;4.68;;;11.40;60.70;;;;;;5041984;28;20089;-60
2023/05/05 04:06:22;;;;;;;8.60;5.03;;;11.40;60.70;;;;;;5041801;28;20110;-60
2023/05/05 04:08:47;;;;;;;7.88;4.90;;;11.40;60.60;;;;;;5041685;28;20033;-60
2023/05/05 04:11:13;;;;;;;9.25;5.32;;;11.40;60.70;;;;;;5038052;28;20089;-60
2023/05/05 04:13:40;;;;;;;10.90;5.28;;;11.40;60.80;;;;;;5042497;28;20104;-60
2023/05/05 04:16:06;;;;;;;6.63;4.95;;;11.40;61.00;;;;;;5024266;28;20029;-59
2023/05/05 04:18:31;;;;;;;13.55;4.97;;;11.40;61.00;;;;;;5041671;28;20079;-61
2023/05/05 04:20:57;;;;;;;9.35;4.90;;;11.40;61.20;;;;;;5041459;28;20511;-60
2023/05/05 04:23:22;;;;;;;16.05;4.70;;;11.40;61.20;;;;;;5040733;28;20017;-59
2023/05/05 04:25:48;;;;;;;10.45;4.88;;;11.40;61.20;;;;;;5039415;28;20049;-60
2023/05/05 04:28:14;;;;;;;7.32;4.80;;;11.40;61.10;;;;;;5037436;28;20068;-60
2023/05/05 04:30:39;;;;;;;9.95;4.78;;;11.50;61.30;;;;;;5042230;28;20025;-61
2023/05/05 04:33:05;;;;;;;11.50;4.63;;;11.50;61.50;;;;;;5042334;28;20026;-60
2023/05/05 04:35:31;;;;;;;7.10;5.10;;;11.50;61.50;;;;;;5037426;28;20483;-60
2023/05/05 04:37:56;;;;;;;8.35;4.75;;;11.60;61.50;;;;;;5042063;28;20037;-60
2023/05/05 04:40:22;;;;;;;8.15;4.88;;;11.60;61.40;;;;;;4932735;28;20038;-60
2023/05/05 04:42:48;;;;;;;9.63;4.90;;;11.60;61.50;;;;;;5023366;28;20021;-60
2023/05/05 04:45:14;;;;;;;10.98;5.40;;;11.70;61.60;;;;;;5036570;28;20037;-60
2023/05/05 04:47:39;;;;;;;8.80;5.00;;;11.70;61.50;;;;;;5042458;28;20021;-59
2023/05/05 04:50:06;;;;;;;7.25;5.22;;;11.80;61.60;;;;;;5037128;28;20026;-61
2023/05/05 04:52:32;;;;;;;6.97;5.47;;;11.80;61.50;;;;;;5037574;28;20018;-59
2023/05/05 04:54:58;;;;;;;7.07;5.18;;;11.90;61.70;;;;;;5037373;28;20541;-60
2023/05/05 04:57:24;;;;;;;10.95;5.63;;;12.00;61.80;;;;;;5036681;28;20036;-59
2023/05/05 04:59:50;;;;;;;8.50;5.53;;;12.10;61.90;;;;;;5036424;28;20048;-60
2023/05/05 05:02:15;;;;;;;6.65;4.78;;;12.20;62.00;;;;;;5039729;28;20037;-60
2023/05/05 05:04:41;;;;;;;9.10;5.85;;;12.40;61.90;;;;;;5020454;28;20036;-60
2023/05/05 05:07:07;;;;;;;7.00;5.53;;;12.50;61.80;;;;;;5039963;28;20048;-61
2023/05/05 05:09:32;;;;;;;11.13;6.28;;;12.60;61.80;;;;;;5039708;28;20060;-60
2023/05/05 05:11:59;;;;;;;9.95;5.53;;;12.70;61.70;;;;;;5041131;28;20049;-60
2023/05/05 05:14:26;;;;;;;11.70;5.88;;;12.90;61.50;;;;;;5040503;28;20029;-60
2023/05/05 05:16:52;;;;;;;7.85;5.43;;;13.10;61.30;;;;;;5018110;28;20229;-60
2023/05/05 05:19:18;;;;;;;12.95;6.00;;;13.20;61.00;;;;;;5037687;28;20022;-61
2023/05/05 05:21:44;;;;;;;11.90;5.82;;;13.30;60.70;;;;;;5040359;28;20087;-61
2023/05/05 05:24:10;;;;;;;8.05;5.40;;;13.40;60.60;;;;;;5036502;28;20062;-60
2023/05/05 05:26:36;;;;;;;8.32;5.18;;;13.50;60.70;;;;;;5040143;28;20021;-60
2023/05/05 05:29:03;;;;;;;9.43;5.32;;;13.60;60.60;;;;;;5038177;28;20109;-61
2023/05/05 05:31:28;;;;;;;9.93;5.63;;;13.70;60.50;;;;;;5038932;28;20029;-60
2023/05/05 05:33:55;;;;;;;16.88;5.90;;;13.80;60.50;;;;;;5022135;28;20041;-60
2023/05/05 05:36:21;;;;;;;8.88;4.70;;;13.90;60.50;;;;;;5040152;28;20077;-61
2023/05/05 05:38:46;;;;;;;18.27;5.55;;;14.00;60.20;;;;;;5040456;28;20034;-60
2023/05/05 05:41:12;;;;;;;18.50;5.97;;;14.10;59.90;;;;;;5040018;28;20029;-62
2023/05/05 05:43:38;;;;;;;16.15;6.00;;;14.10;59.90;;;;;;5040280;28;20025;-61
2023/05/05 05:46:03;;;;;;;10.82;5.78;;;14.20;59.90;;;;;;5034566;28;20025;-60
2023/05/05 05:48:29;;;;;;;13.80;6.15;;;14.20;59.70;;;;;;5019679;28;20041;-61
2023/05/05 05:50:55;;;;;;;16.20;5.40;;;14.30;59.70;;;;;;5015389;28;20029;-61
2023/05/05 05:53:21;;;;;;;12.23;6.10;;;14.30;59.70;;;;;;5041292;28;20029;-60
2023/05/05 05:55:47;;;;;;;22.17;5.97;;;14.30;59.60;;;;;;5045320;28;20044;-60
2023/05/05 05:58:13;;;;;;;17.30;8.20;;;14.40;59.40;;;;;;5045801;28;20040;-60
2023/05/05 06:00:39;;;;;;;10.93;8.20;;;14.50;59.40;;;;;;5046305;28;20026;-62
2023/05/05 06:03:04;;;;;;;18.42;7.18;;;14.50;59.30;;;;;;5043122;28;20080;-60
2023/05/05 06:05:31;;;;;;;12.02;6.25;;;14.60;59.20;;;;;;5035877;28;20040;-60
2023/05/05 06:07:56;;;;;;;12.85;6.40;;;14.60;59.20;;;;;;5043088;28;20029;-61
2023/05/05 06:10:22;;;;;;;17.67;6.60;;;14.70;59.20;;;;;;5044145;28;20515;-60
2023/05/05 06:12:48;;;;;;;10.35;6.63;;;14.80;59.40;;;;;;5038605;28;20053;-61
2023/05/05 06:15:13;;;;;;;15.35;6.53;;;14.80;59.40;;;;;;5037678;28;20041;-60
2023/05/05 06:17:39;;;;;;;15.77;5.68;;;14.90;59.30;;;;;;5040355;28;20025;-62
2023/05/05 06:20:05;;;;;;;12.30;5.93;;;15.00;59.20;;;;;;5037385;28;20063;-61
2023/05/05 06:22:31;;;;;;;11.35;5.80;;;15.10;59.40;;;;;;5042299;28;20096;-61
2023/05/05 06:24:57;;;;;;;12.82;5.85;;;15.30;59.40;;;;;;5042635;28;20040;-61
2023/05/05 06:27:22;;;;;;;15.07;6.28;;;15.40;59.20;;;;;;5044432;28;20379;-61
2023/05/05 06:29:48;;;;;;;19.63;6.13;;;15.50;59.00;;;;;;5045053;28;20102;-60
2023/05/05 06:32:14;;;;;;;10.55;5.75;;;15.60;59.00;;;;;;5027132;28;20040;-62
2023/05/05 06:34:41;;;;;;;11.13;5.75;;;15.70;58.90;;;;;;5036898;28;20038;-60
2023/05/05 06:37:07;;;;;;;8.82;5.40;;;15.90;58.80;;;;;;5041407;28;20075;-61
2023/05/05 06:39:32;;;;;;;14.88;5.95;;;16.00;58.60;;;;;;5039197;28;20449;-62
2023/05/05 06:41:58;;;;;;;12.45;5.38;;;16.10;58.50;;;;;;5043419;28;20907;-63
2023/05/05 06:44:24;;;;;;;12.38;5.97;;;16.20;58.30;;;;;;5039657;28;20411;-61
2023/05/05 06:46:50;;;;;;;8.38;5.55;;;16.30;58.40;;;;;;5038272;28;20704;-60
2023/05/05 06:49:16;;;;;;;12.30;5.97;;;16.30;58.20;;;;;;5041718;28;20859;-61
2023/05/05 06:51:41;;;;;;;10.43;6.25;;;16.40;58.40;;;;;;5038811;28;20041;-61
2023/05/05 06:54:07;;;;;;;15.30;5.97;;;16.50;58.40;;;;;;5039573;28;20090;-60
2023/05/05 06:56:33;;;;;;;11.20;5.88;;;16.70;58.30;;;;;;5037044;28;20433;-60
2023/05/05 06:58:58;;;;;;;9.70;6.20;;;16.80;57.90;;;;;;5044325;28;20018;-60
2023/05/05 07:01:24;;;;;;;9.70;5.85;;;16.90;57.60;;;;;;5042920;28;20033;-61
2023/05/05 07:03:51;;;;;;;10.18;6.35;;;17.00;57.40;;;;;;5043117;28;20361;-61
2023/05/05 07:06:16;;;;;;;10.05;6.03;;;17.00;57.10;;;;;;5038021;28;20117;-60
2023/05/05 07:08:42;;;;;;;8.50;5.95;;;17.10;57.10;;;;;;5026013;28;20065;-61
2023/05/05 07:11:08;;;;;;;12.43;6.60;;;17.10;57.10;;;;;;5038630;28;20026;-60
2023/05/05 07:13:33;;;;;;;12.02;6.32;;;17.10;57.00;;;;;;5041690;28;20072;-61
2023/05/05 07:15:59;;;;;;;14.95;6.53;;;17.20;57.20;;;;;;5044150;28;20025;-62
2023/05/05 07:18:25;;;;;;;14.10;6.53;;;17.30;57.50;;;;;;5042714;28;20033;-61
2023/05/05 07:20:50;;;;;;;10.05;6.10;;;17.40;57.60;;;;;;5042725;28;20022;-60
2023/05/05 07:23:16;;;;;;;14.45;6.18;;;17.60;57.60;;;;;;5039722;28;20088;-62
2023/05/05 07:25:42;;;;;;;11.00;6.68;;;17.80;57.70;;;;;;5036166;28;20057;-60
2023/05/05 07:28:08;;;;;;;8.32;5.18;;;17.90;57.70;;;;;;5040568;28;20034;-61
2023/05/05 07:30:34;;;;;;;10.52;5.47;;;18.10;57.50;;;;;;5022176;28;20053;-60
2023/05/05 07:33:00;;;;;;;13.63;6.00;;;18.30;57.60;;;;;;5042483;28;20061;-61
2023/05/05 07:35:26;;;;;;;14.23;5.10;;;18.50;57.40;;;;;;5041187;28;20045;-61
2023/05/05 07:37:52;;;;;;;10.50;5.72;;;18.60;57.20;;;;;;5042815;28;20469;-61
2023/05/05 07:40:18;;;;;;;9.05;5.25;;;18.80;57.10;;;;;;4953140;28;20057;-61
2023/05/05 07:42:43;;;;;;;17.73;5.93;;;19.00;57.20;;;;;;5012878;28;20041;-60
2023/05/05 07:45:09;;;;;;;8.20;4.97;;;19.20;57.20;;;;;;5037310;28;20029;-61
2023/05/05 07:47:35;;;;;;;7.75;5.25;;;19.30;57.30;;;;;;5039935;28;20369;-60
2023/05/05 07:50:01;;;;;;;11.80;5.78;;;19.40;57.20;;;;;;5042056;28;20109;-60
2023/05/05 07:52:26;;;;;;;9.88;4.93;;;19.60;57.40;;;;;;5039417;28;20028;-61
2023/05/05 07:54:52;;;;;;;8.82;5.38;;;19.70;57.30;;;;;;5041257;28;20052;-60
2023/05/05 07:57:18;;;;;;;13.00;4.97;;;19.80;57.20;;;;;;5041546;28;20025;-61
2023/05/05 07:59:43;;;;;;;9.40;4.10;;;20.00;57.30;;;;;;5039881;28;20049;-61
2023/05/05 08:02:12;;;;;;;5.55;2.80;;;20.10;57.00;;;;;;5040204;28;20192;-61
2023/05/05 08:04:39;;;;;;;10.27;3.40;;;20.30;56.80;;;;;;5038530;28;20030;-60
2023/05/05 08:07:04;;;;;;;4.82;3.20;;;20.50;56.80;;;;;;5041304;28;20072;-61
2023/05/05 08:09:30;;;;;;;3.50;2.20;;;20.80;56.50;;;;;;5040649;28;20045;-61
2023/05/05 08:11:56;;;;;;;4.95;1.85;;;21.00;56.10;;;;;;5039023;28;20053;-61
2023/05/05 08:14:21;;;;;;;2.42;2.10;;;21.20;55.50;;;;;;5036027;28;20029;-60
2023/05/05 08:16:47;;;;;;;4.55;1.70;;;21.40;54.80;;;;;;5041505;28;20490;-60
2023/05/05 08:19:13;;;;;;;4.20;1.75;;;21.60;54.10;;;;;;5022664;28;20033;-60
2023/05/05 08:21:38;;;;;;;4.43;2.10;;;21.70;53.80;;;;;;5041240;28;20033;-60
2023/05/05 08:24:04;;;;;;;4.05;1.70;;;21.80;53.20;;;;;;5041657;28;20021;-62
2023/05/05 08:26:30;;;;;;;3.38;2.00;;;21.90;52.70;;;;;;5040500;28;20056;-61
2023/05/05 08:28:59;;;;;;;3.80;1.50;;;21.90;52.60;;;;;;5039895;28;20096;-60
2023/05/05 08:31:26;;;;;;;4.63;1.70;;;21.90;52.40;;;;;;5040484;28;20033;-61
2023/05/05 08:33:52;;;;;;;2.20;1.77;;;21.90;52.40;;;;;;5036842;28;20047;-61
2023/05/05 08:36:18;;;;;;;3.83;1.85;;;22.00;52.40;;;;;;5039476;28;20076;-60
2023/05/05 08:38:43;;;;;;;1.85;1.35;;;22.00;52.20;;;;;;5035977;28;20550;-62
2023/05/05 08:41:13;;;;;;;5.15;1.40;;;22.10;52.00;;;;;;5041023;28;20033;-61
2023/05/05 08:43:38;;;;;;;3.35;1.52;;;22.10;52.10;;;;;;5039747;28;20030;-63
2023/05/05 08:46:05;;;;;;;4.72;1.95;;;22.20;52.20;;;;;;5040652;28;20081;-63
2023/05/05 08:48:33;;;;;;;5.18;2.05;;;22.30;51.70;;;;;;5040965;28;20037;-63
2023/05/05 08:51:01;;;;;;;11.25;1.98;;;22.30;51.30;;;;;;5016589;28;20021;-62
2023/05/05 08:53:53;;;;;;;2.60;1.80;;;22.30;51.40;;;;;;5039914;28;20099;-61
2023/05/05 08:56:23;;;;;;;2.33;1.42;;;22.40;50.90;;;;;;5036132;28;20044;-62
2023/05/05 08:58:50;;;;;;;4.20;1.63;;;22.40;51.40;;;;;;5038106;28;20025;-62
2023/05/05 09:01:16;;;;;;;4.63;2.00;;;22.40;50.80;;;;;;5037668;28;20026;-61
2023/05/05 09:03:44;;;;;;;3.47;1.90;;;22.40;50.50;;;;;;5040820;28;20026;-62
2023/05/05 09:06:10;;;;;;;1.98;1.55;;;22.40;50.70;;;;;;5035160;28;20040;-61
2023/05/05 09:08:36;;;;;;;5.03;1.80;;;22.40;50.80;;;;;;5037969;28;20036;-61
2023/05/05 09:11:02;;;;;;;4.07;1.75;;;22.40;50.90;;;;;;5040925;28;20038;-60
2023/05/05 09:13:30;;;;;;;2.30;1.70;;;22.50;50.80;;;;;;5039022;28;20072;-62
2023/05/05 09:15:56;;;;;;;6.82;2.45;;;22.60;50.40;;;;;;5039188;28;20028;-61
2023/05/05 09:18:22;;;;;;;3.15;1.55;;;22.60;50.00;;;;;;5041565;28;20013;-61
2023/05/05 09:20:47;;;;;;;4.18;1.73;;;22.60;49.60;;;;;;5039549;28;20676;-62
2023/05/05 09:23:19;;;;;;;7.75;2.05;;;22.50;49.90;;;;;;5040136;28;20076;-62
2023/05/05 09:25:47;;;;;;;3.47;2.05;;;22.50;49.80;;;;;;5039486;28;20033;-62
2023/05/05 09:28:17;;;;;;;2.97;1.83;;;22.40;50.00;;;;;;5041361;28;20392;-61
2023/05/05 09:30:45;;;;;;;5.07;2.08;;;22.40;50.00;;;;;;5032653;28;20034;-60
2023/05/05 09:33:12;;;;;;;5.57;2.20;;;22.40;50.00;;;;;;5035918;28;20036;-62
2023/05/05 09:35:57;;;;;;;4.22;2.22;;;22.40;50.10;;;;;;5038348;28;20025;-60
2023/05/05 09:38:24;;;;;;;3.65;2.55;;;22.30;50.20;;;;;;5035635;28;20107;-63
2023/05/05 09:40:52;;;;;;;5.15;2.42;;;22.30;50.60;;;;;;5040445;28;20036;-62
2023/05/05 09:43:20;;;;;;;7.00;2.65;;;22.20;51.10;;;;;;5039350;28;20034;-62
2023/05/05 09:45:47;;;;;;;3.15;2.35;;;22.20;51.20;;;;;;5040233;28;20033;-62
2023/05/05 09:48:30;;;;;;;3.78;2.50;;;22.10;51.10;;;;;;5037218;28;20029;-62
2023/05/05 09:50:57;;;;;;;2.58;2.13;;;22.10;51.40;;;;;;5033840;28;20029;-62
2023/05/05 09:53:24;;;;;;;7.00;2.90;;;22.10;51.40;;;;;;5039211;28;20032;-61
2023/05/05 09:55:59;;;;;;;5.43;2.35;;;22.10;51.60;;;;;;5039084;28;20070;-60
2023/05/05 09:58:29;;;;;;;3.78;2.45;;;22.20;51.90;;;;;;5038056;28;20026;-62
2023/05/05 10:00:56;;;;;;;4.47;2.22;;;22.30;52.10;;;;;;5035728;28;20026;-61
2023/05/05 10:03:22;;;;;;;5.60;2.58;;;22.30;51.90;;;;;;5039267;28;20033;-61
2023/05/05 10:05:52;;;;;;;5.20;2.80;;;22.40;51.50;;;;;;5034864;28;20041;-62
2023/05/05 10:08:21;;;;;;;7.95;2.72;;;22.40;51.30;;;;;;5035497;28;20043;-60
2023/05/05 10:10:52;;;;;;;5.95;2.63;;;22.40;51.30;;;;;;5034950;28;20022;-62
2023/05/05 10:13:20;;;;;;;3.40;2.58;;;22.40;51.30;;;;;;5018378;28;20632;-62
2023/05/05 10:15:50;;;;;;;3.65;2.70;;;22.40;51.10;;;;;;5038762;28;20030;-62
2023/05/05 10:18:27;;;;;;;4.28;2.47;;;22.40;51.30;;;;;;5032434;28;20058;-61
2023/05/05 10:21:03;;;;;;;3.58;2.53;;;22.40;51.40;;;;;;5033821;28;20036;-61
2023/05/05 10:23:45;;;;;;;4.97;2.60;;;22.30;51.50;;;;;;5036640;28;20036;-62
2023/05/05 10:26:13;;;;;;;3.88;2.05;;;22.20;51.70;;;;;;5032793;28;20040;-62
2023/05/05 10:28:50;;;;;;;3.92;2.83;;;22.20;51.70;;;;;;5036751;28;20049;-61
2023/05/05 10:31:46;;;;;;;8.07;2.85;;;22.10;51.70;;;;;;5033320;28;20037;-62
2023/05/05 10:34:36;;;;;;;3.75;2.13;;;22.10;51.90;;;;;;5028376;28;20052;-61
2023/05/05 10:37:03;;;;;;;5.03;2.40;;;22.00;52.30;;;;;;5032504;28;20033;-60
2023/05/05 10:39:30;;;;;;;6.97;2.40;;;22.00;52.40;;;;;;4934819;28;20033;-62
2023/05/05 10:42:00;;;;;;;3.97;2.38;;;22.00;52.30;;;;;;5032821;28;20030;-62
2023/05/05 10:44:31;;;;;;;4.43;2.65;;;22.00;52.40;;;;;;5035525;28;20033;-63
2023/05/05 10:46:57;;;;;;;2.67;2.05;;;22.00;52.40;;;;;;5035889;28;20045;-61
2023/05/05 10:49:49;;;;;;;2.63;1.98;;;22.00;52.50;;;;;;5034198;28;20072;-61
2023/05/05 10:52:20;;;;;;;3.28;1.92;;;21.90;52.60;;;;;;5036423;28;20372;-63
2023/05/05 10:54:54;;;;;;;4.75;2.08;;;21.90;52.70;;;;;;5035018;28;20029;-62
2023/05/05 10:57:24;;;;;;;3.90;2.20;;;21.90;52.80;;;;;;5035895;28;20033;-62
2023/05/05 10:59:50;;;;;;;3.60;2.08;;;21.90;53.10;;;;;;5036846;28;20037;-64
2023/05/05 11:02:30;;;;;;;2.88;1.92;;;22.00;53.30;;;;;;5037226;28;20029;-63
2023/05/05 11:05:08;;;;;;;4.78;2.25;;;22.10;52.90;;;;;;5034662;28;20037;-61
2023/05/05 11:07:37;;;;;;;9.13;2.20;;;22.30;52.50;;;;;;5037865;28;20140;-61
2023/05/05 11:10:05;;;;;;;3.72;1.85;;;22.40;52.60;;;;;;5038321;28;20041;-61
2023/05/05 11:12:32;;;;;;;4.05;2.17;;;22.50;52.10;;;;;;5038634;28;20052;-61
2023/05/05 11:15:27;;;;;;;3.08;1.70;;;22.60;51.50;;;;;;5039896;28;20033;-62
2023/05/05 11:17:54;;;;;;;3.83;1.58;;;22.70;51.70;;;;;;5030794;28;20064;-62
2023/05/05 11:20:35;;;;;;;1.85;1.33;;;22.90;51.60;;;;;;5038049;28;20463;-62
2023/05/05 11:23:01;;;;;;;1.35;1.15;;;23.00;50.40;;;;;;5038351;28;20033;-63
2023/05/05 11:28:10;;;;;;;2.97;1.40;;;23.30;49.80;;;;;;5037946;28;20072;-63
2023/05/05 11:30:55;;;;;;;2.95;1.27;;;23.40;49.90;;;;;;5038454;28;20059;-62
2023/05/05 11:33:32;;;;;;;1.98;1.25;;;23.60;49.30;;;;;;5030806;28;20113;-62
2023/05/05 11:36:01;;;;;;;1.80;1.40;;;23.80;48.70;;;;;;5037640;28;20041;-63
2023/05/05 11:39:04;;;;;;;1.13;0.82;;;24.10;47.30;;;;;;5034577;28;20049;-62
2023/05/05 11:41:33;;;;;;;2.25;1.10;;;24.20;45.00;;;;;;4984029;28;20033;-62
2023/05/05 11:44:10;;;;;;;1.73;1.13;;;24.30;46.60;;;;;;5038354;28;20048;-63
2023/05/05 11:47:00;;;;;;;6.32;1.33;;;24.30;46.80;;;;;;5036825;28;20037;-62
2023/05/05 11:49:30;;;;;;;2.10;1.23;;;24.40;47.50;;;;;;4954123;29;20051;-63
2023/05/05 11:52:00;;;;;;;4.70;1.27;;;24.60;47.80;;;;;;4946873;29;20055;-62
2023/05/05 11:54:26;;;;;;;2.95;1.20;;;24.80;48.30;;;;;;4940292;29;20059;-63
2023/05/05 11:56:54;;;;;;;2.80;1.40;;;25.00;47.60;;;;;;4955006;28;20071;-62
2023/05/05 11:59:21;;;;;;;3.92;1.17;;;25.20;47.50;;;;;;4950427;28;20042;-61
2023/05/05 12:01:46;;;;;;;5.22;1.27;;;25.40;47.30;;;;;;4947428;29;20052;-62
2023/05/05 12:04:13;;;;;;;4.10;1.40;;;25.70;47.00;;;;;;4947858;29;20058;-62
2023/05/05 12:06:40;;;;;;;1.08;0.93;;;25.80;46.60;;;;;;4954035;29;20043;-62
2023/05/05 12:09:13;;;;;;;1.60;1.08;;;26.10;46.30;;;;;;4941806;28;20078;-62
2023/05/05 12:11:54;;;;;;;2.83;1.17;;;26.20;45.80;;;;;;4951659;29;20033;-62
2023/05/05 12:14:21;;;;;;;1.88;1.02;;;26.40;44.80;;;;;;4953336;29;20055;-64
2023/05/05 12:17:17;;;;;;;2.47;1.20;;;26.50;45.20;;;;;;4955258;28;20036;-62
2023/05/05 12:19:54;;;;;;;1.60;1.05;;;26.60;44.40;;;;;;4936464;29;20043;-63
2023/05/05 12:22:24;;;;;;;3.15;0.98;;;26.60;43.20;;;;;;4956711;29;20066;-64
2023/05/05 12:25:01;;;;;;;1.52;1.05;;;26.60;43.20;;;;;;4953044;28;20046;-62
2023/05/05 12:27:28;;;;;;;1.98;1.10;;;26.60;41.50;;;;;;5024728;28;20045;-63
2023/05/05 12:29:55;;;;;;;2.47;0.90;;;26.50;42.50;;;;;;5033705;28;20037;-61
2023/05/05 12:32:26;;;;;;;1.55;1.00;;;26.40;42.40;;;;;;5037681;28;20023;-63
2023/05/05 12:34:54;;;;;;;2.35;1.15;;;26.40;42.60;;;;;;5032850;28;20022;-62
2023/05/05 12:37:22;;;;;;;3.03;0.82;;;26.50;43.60;;;;;;5036813;28;20538;-61
2023/05/05 12:39:49;;;;;;;0.70;0.70;;;26.60;43.60;;;;;;5034662;28;20531;-62
2023/05/05 12:42:15;;;;;;;2.88;0.80;;;26.70;43.30;;;;;;4951274;28;20404;-62
2023/05/05 12:44:43;;;;;;;3.28;1.00;;;26.80;43.60;;;;;;5034106;28;20120;-62
2023/05/05 12:47:12;;;;;;;1.20;0.90;;;27.00;43.10;;;;;;5031764;28;20030;-62
2023/05/05 12:49:50;;;;;;;0.80;0.77;;;27.20;42.80;;;;;;5036378;28;20484;-62
2023/05/05 12:52:17;;;;;;;2.28;0.80;;;27.40;40.90;;;;;;5036829;28;20048;-62
2023/05/05 12:54:57;;;;;;;1.35;0.80;;;27.50;41.60;;;;;;5035449;28;20026;-61
2023/05/05 12:57:24;;;;;;;2.03;0.80;;;27.60;39.90;;;;;;5036667;28;20037;-61